Time;durP1;ratioP1;P1;durP2;ratioP2;P2;SDS_P1;SDS_P2;PMS_P1;PMS_P2;Temp;Humidity;BMP_temperature;BMP_pressure;BME280_temperature;BME280_humidity;BME280_pressure;Samples;Min_cycle;Max_cycle;Signal;HPM_P1;HPM_P2
2023/11/07 00:02:11;;;;;;;3.17;1.50;;;11.90;99.90;;;;;;5063044;28;20187;-67
2023/11/07 00:04:38;;;;;;;2.80;1.60;;;11.80;99.90;;;;;;5060207;28;20640;-67
2023/11/07 00:07:04;;;;;;;2.63;1.40;;;11.80;99.90;;;;;;5064259;28;20206;-67
2023/11/07 00:09:30;;;;;;;7.27;1.83;;;11.80;99.90;;;;;;5062306;28;20437;-67
2023/11/07 00:11:56;;;;;;;3.03;1.77;;;11.70;99.90;;;;;;5060583;28;20241;-67
2023/11/07 00:14:22;;;;;;;3.17;1.50;;;11.70;99.90;;;;;;5065900;28;20472;-67
2023/11/07 00:16:48;;;;;;;2.80;1.50;;;11.70;99.90;;;;;;5064786;28;20933;-67
2023/11/07 00:19:14;;;;;;;2.20;1.50;;;11.80;99.90;;;;;;5062911;28;20425;-67
2023/11/07 00:21:40;;;;;;;2.80;2.23;;;11.70;99.90;;;;;;5056651;28;20179;-67
2023/11/07 00:24:06;;;;;;;2.40;1.63;;;11.70;99.90;;;;;;5061760;28;20235;-67
2023/11/07 00:26:31;;;;;;;6.60;1.63;;;11.70;99.90;;;;;;5060850;28;20225;-67
2023/11/07 00:28:57;;;;;;;3.83;1.80;;;11.80;99.90;;;;;;5059404;28;20457;-66
2023/11/07 00:31:23;;;;;;;2.97;1.57;;;11.80;99.90;;;;;;5058355;28;20183;-67
2023/11/07 00:33:48;;;;;;;2.23;1.50;;;11.80;99.90;;;;;;5059834;28;20233;-67
2023/11/07 00:36:14;;;;;;;4.43;1.60;;;11.90;99.90;;;;;;5058970;28;20418;-66
2023/11/07 00:38:39;;;;;;;2.80;1.60;;;11.90;99.90;;;;;;5059190;28;20179;-67
2023/11/07 00:41:06;;;;;;;3.47;1.70;;;11.90;99.90;;;;;;5060425;28;20213;-67
2023/11/07 00:43:32;;;;;;;2.00;1.20;;;11.80;99.90;;;;;;5059534;28;20199;-67
2023/11/07 00:45:58;;;;;;;2.63;1.60;;;11.80;99.90;;;;;;5061566;28;20491;-67
2023/11/07 00:48:23;;;;;;;7.10;1.60;;;11.80;99.90;;;;;;5060317;28;20184;-66
2023/11/07 00:50:49;;;;;;;4.13;1.80;;;11.80;99.90;;;;;;5065434;28;20269;-66
2023/11/07 00:53:15;;;;;;;4.10;2.27;;;11.80;99.90;;;;;;5061127;28;20215;-66
2023/11/07 00:55:40;;;;;;;1.70;1.10;;;11.90;99.90;;;;;;5063642;28;20499;-66
2023/11/07 00:58:06;;;;;;;8.17;1.80;;;11.90;99.90;;;;;;5063455;28;20187;-66
2023/11/07 01:00:33;;;;;;;2.17;1.30;;;12.00;99.90;;;;;;5062546;28;20209;-67
2023/11/07 01:02:59;;;;;;;3.40;1.40;;;11.80;99.90;;;;;;5066168;28;20822;-67
2023/11/07 01:05:26;;;;;;;3.63;1.83;;;11.80;99.90;;;;;;5064367;28;20911;-68
2023/11/07 01:07:51;;;;;;;2.43;1.50;;;11.80;99.90;;;;;;5066495;28;20504;-67
2023/11/07 01:10:17;;;;;;;2.47;1.83;;;11.90;99.90;;;;;;5065363;28;20995;-66
2023/11/07 01:12:43;;;;;;;2.70;1.37;;;11.90;99.90;;;;;;5062922;28;20239;-67
2023/11/07 01:15:09;;;;;;;4.00;1.60;;;11.90;99.90;;;;;;5064896;28;20452;-67
2023/11/07 01:17:35;;;;;;;2.93;1.50;;;11.80;99.90;;;;;;5058239;28;20472;-67
2023/11/07 01:20:00;;;;;;;3.80;1.67;;;11.80;99.90;;;;;;5064458;28;20192;-67
2023/11/07 01:22:26;;;;;;;3.43;1.97;;;11.80;99.90;;;;;;5065478;28;20214;-67
2023/11/07 01:24:52;;;;;;;2.73;1.60;;;11.80;99.90;;;;;;5063187;28;20221;-67
2023/11/07 01:27:17;;;;;;;2.50;1.33;;;11.80;99.90;;;;;;5066506;28;20733;-68
2023/11/07 01:29:43;;;;;;;2.90;1.70;;;11.70;99.90;;;;;;5061690;28;20217;-67
2023/11/07 01:32:09;;;;;;;3.23;1.50;;;11.80;99.90;;;;;;5063333;28;20253;-68
2023/11/07 01:34:34;;;;;;;5.03;1.50;;;11.90;99.90;;;;;;5064825;28;20179;-68
2023/11/07 01:37:00;;;;;;;4.00;1.50;;;11.80;99.90;;;;;;5066123;28;20432;-67
2023/11/07 01:39:26;;;;;;;3.20;1.33;;;11.70;99.90;;;;;;5058037;28;20226;-67
2023/11/07 01:41:51;;;;;;;2.63;1.30;;;11.70;99.90;;;;;;5063956;28;20179;-67
2023/11/07 01:44:17;;;;;;;2.73;1.50;;;11.70;99.90;;;;;;5063551;28;20203;-67
2023/11/07 01:46:43;;;;;;;2.43;1.27;;;11.80;99.90;;;;;;5062735;28;20629;-67
2023/11/07 01:49:08;;;;;;;3.10;1.50;;;11.80;99.90;;;;;;5062758;28;20591;-67
2023/11/07 01:51:35;;;;;;;4.00;1.40;;;11.90;99.90;;;;;;5063261;28;20413;-67
2023/11/07 01:54:02;;;;;;;2.43;1.40;;;11.90;99.90;;;;;;5064715;28;20202;-66
2023/11/07 01:56:28;;;;;;;2.27;1.33;;;11.90;99.90;;;;;;5061429;28;20494;-66
2023/11/07 01:58:57;;;;;;;2.00;1.37;;;11.80;99.90;;;;;;5064145;28;20414;-67
2023/11/07 02:01:24;;;;;;;2.10;1.30;;;11.80;99.90;;;;;;5062464;28;20567;-67
2023/11/07 02:03:51;;;;;;;3.97;1.83;;;11.80;99.90;;;;;;5062102;28;20475;-67
2023/11/07 02:06:16;;;;;;;2.90;1.40;;;11.80;99.90;;;;;;5061109;28;20413;-66
2023/11/07 02:08:42;;;;;;;3.07;1.40;;;11.80;99.90;;;;;;5059511;28;20481;-67
2023/11/07 02:11:08;;;;;;;4.70;1.60;;;11.80;99.90;;;;;;5065010;28;20192;-67
2023/11/07 02:13:34;;;;;;;3.37;1.50;;;11.80;99.90;;;;;;5062244;28;20276;-66
2023/11/07 02:15:59;;;;;;;2.93;1.40;;;11.80;99.90;;;;;;5064554;28;20413;-66
2023/11/07 02:18:25;;;;;;;1.80;1.20;;;11.80;99.90;;;;;;5057679;28;20234;-66
2023/11/07 02:20:51;;;;;;;3.63;1.70;;;11.80;99.90;;;;;;5062166;28;20180;-67
2023/11/07 02:23:30;;;;;;;2.47;1.30;;;11.80;99.90;;;;;;5057830;28;20204;-67
2023/11/07 02:25:56;;;;;;;1.93;1.10;;;11.70;99.90;;;;;;5060699;28;20464;-67
2023/11/07 02:28:22;;;;;;;1.90;1.30;;;11.80;99.90;;;;;;5062993;28;20429;-67
2023/11/07 02:30:47;;;;;;;2.03;1.40;;;11.70;99.90;;;;;;5058978;28;20441;-67
2023/11/07 02:33:14;;;;;;;2.07;1.30;;;11.60;99.90;;;;;;5061238;28;20210;-66
2023/11/07 02:35:41;;;;;;;2.93;1.43;;;11.60;99.90;;;;;;5062928;28;20222;-67
2023/11/07 02:38:07;;;;;;;2.23;1.43;;;11.60;99.90;;;;;;5065434;28;20459;-67
2023/11/07 02:40:33;;;;;;;8.10;1.40;;;11.60;99.90;;;;;;5062928;28;20536;-67
2023/11/07 02:43:04;;;;;;;3.03;1.60;;;11.60;99.90;;;;;;5060545;28;21001;-68
2023/11/07 02:45:30;;;;;;;2.47;1.30;;;11.50;99.90;;;;;;5063656;28;20528;-68
2023/11/07 02:47:56;;;;;;;3.97;1.47;;;11.60;99.90;;;;;;5064960;28;20420;-67
2023/11/07 02:50:22;;;;;;;4.83;1.73;;;11.50;99.90;;;;;;5065457;28;20413;-67
2023/11/07 02:52:48;;;;;;;3.47;1.47;;;11.60;99.90;;;;;;5066329;28;20558;-67
2023/11/07 02:55:14;;;;;;;2.80;1.57;;;11.50;99.90;;;;;;5066781;28;20495;-67
2023/11/07 02:57:39;;;;;;;3.10;1.60;;;11.50;99.90;;;;;;5065595;28;20678;-68
2023/11/07 03:00:09;;;;;;;2.80;1.50;;;11.50;99.90;;;;;;5064435;28;20221;-66
2023/11/07 03:02:36;;;;;;;2.77;1.50;;;11.50;99.90;;;;;;5060294;28;20207;-66
2023/11/07 03:05:02;;;;;;;2.47;1.37;;;11.60;99.90;;;;;;5065028;28;20463;-67
2023/11/07 03:07:28;;;;;;;4.33;1.40;;;11.60;99.90;;;;;;5065076;28;20772;-67
2023/11/07 03:09:53;;;;;;;2.97;1.27;;;11.60;99.90;;;;;;5064307;28;20410;-66
2023/11/07 03:12:19;;;;;;;4.37;1.50;;;11.60;99.90;;;;;;5061160;28;20249;-67
2023/11/07 03:14:44;;;;;;;3.60;1.63;;;11.60;99.90;;;;;;5061798;28;20665;-67
2023/11/07 03:17:10;;;;;;;2.53;1.30;;;11.60;99.90;;;;;;5060209;28;20695;-66
2023/11/07 03:19:36;;;;;;;2.20;1.40;;;11.50;99.90;;;;;;5062246;28;20183;-67
2023/11/07 03:22:01;;;;;;;2.53;1.40;;;11.60;99.90;;;;;;5063102;28;20949;-67
2023/11/07 03:24:27;;;;;;;2.83;1.30;;;11.60;99.90;;;;;;5061434;28;20198;-67
2023/11/07 03:26:52;;;;;;;2.57;1.30;;;11.60;99.90;;;;;;5061747;28;20211;-68
2023/11/07 03:29:18;;;;;;;5.83;1.50;;;11.50;99.90;;;;;;5062321;28;20218;-67
2023/11/07 03:31:44;;;;;;;3.00;1.40;;;11.60;99.90;;;;;;5061785;28;20175;-67
2023/11/07 03:34:12;;;;;;;2.73;1.40;;;11.60;99.90;;;;;;5061219;28;20195;-66
2023/11/07 03:36:38;;;;;;;2.70;1.40;;;11.50;99.90;;;;;;5062480;28;20214;-66
2023/11/07 03:39:04;;;;;;;2.43;1.47;;;11.50;99.90;;;;;;5059634;28;20974;-67
2023/11/07 03:41:30;;;;;;;2.50;1.20;;;11.50;99.90;;;;;;5062947;28;20440;-67
2023/11/07 03:43:56;;;;;;;3.10;1.57;;;11.50;99.90;;;;;;5057886;28;20517;-67
2023/11/07 03:46:21;;;;;;;4.07;1.73;;;11.50;99.90;;;;;;5062319;28;20925;-67
2023/11/07 03:48:47;;;;;;;2.63;1.67;;;11.50;99.90;;;;;;5061280;28;20180;-67
2023/11/07 03:51:12;;;;;;;2.53;1.37;;;11.60;99.90;;;;;;5063322;28;20257;-67
2023/11/07 03:53:38;;;;;;;3.77;1.60;;;11.50;99.90;;;;;;5063365;28;20272;-67
2023/11/07 03:56:04;;;;;;;3.03;2.23;;;11.60;99.90;;;;;;5060314;28;20182;-66
2023/11/07 03:58:29;;;;;;;2.93;1.50;;;11.60;99.90;;;;;;5060711;28;20183;-66
2023/11/07 04:00:57;;;;;;;3.17;1.50;;;11.60;99.90;;;;;;5058422;28;20447;-67
2023/11/07 04:03:22;;;;;;;4.03;1.67;;;11.60;99.90;;;;;;5062770;28;20594;-67
2023/11/07 04:05:48;;;;;;;2.00;1.40;;;11.60;99.90;;;;;;5057805;28;20429;-67
2023/11/07 04:08:14;;;;;;;2.20;1.50;;;11.60;99.90;;;;;;5062440;28;20190;-67
2023/11/07 04:10:40;;;;;;;3.77;1.40;;;11.60;99.90;;;;;;5062877;28;20274;-66
2023/11/07 04:13:06;;;;;;;5.13;1.30;;;11.60;99.90;;;;;;5058524;28;21065;-67
2023/11/07 04:15:32;;;;;;;3.00;1.47;;;11.70;99.90;;;;;;5058678;28;20191;-66
2023/11/07 04:17:58;;;;;;;3.33;1.43;;;11.70;99.90;;;;;;5058864;28;20218;-66
2023/11/07 04:20:24;;;;;;;3.63;1.50;;;11.80;99.90;;;;;;5060090;28;20846;-67
2023/11/07 04:22:50;;;;;;;3.03;1.80;;;11.80;99.90;;;;;;5062941;28;20560;-67
2023/11/07 04:25:19;;;;;;;2.10;1.50;;;11.70;99.90;;;;;;5044753;28;20487;-67
2023/11/07 04:27:46;;;;;;;3.43;1.50;;;11.70;99.90;;;;;;5062292;28;20425;-67
2023/11/07 04:30:13;;;;;;;1.87;1.20;;;11.80;99.90;;;;;;5063927;28;20937;-67
2023/11/07 04:32:40;;;;;;;2.50;1.53;;;11.80;99.90;;;;;;5067945;28;21001;-67
2023/11/07 04:35:06;;;;;;;3.30;1.60;;;11.70;99.90;;;;;;5062348;28;20462;-67
2023/11/07 04:37:32;;;;;;;3.37;1.67;;;11.80;99.90;;;;;;5063641;28;20433;-67
2023/11/07 04:39:58;;;;;;;3.10;1.80;;;11.80;99.90;;;;;;5062911;28;20582;-67
2023/11/07 04:42:24;;;;;;;2.27;1.60;;;11.80;99.90;;;;;;5066485;28;21157;-67
2023/11/07 04:44:50;;;;;;;2.10;1.63;;;11.80;99.90;;;;;;5061367;28;20199;-67
2023/11/07 04:47:17;;;;;;;3.13;1.70;;;11.80;99.90;;;;;;5064515;28;20183;-66
2023/11/07 04:49:43;;;;;;;2.23;1.53;;;11.80;99.90;;;;;;5063341;28;20405;-67
2023/11/07 04:52:08;;;;;;;2.13;1.60;;;11.70;99.90;;;;;;5064274;28;20510;-67
2023/11/07 04:54:35;;;;;;;2.20;1.40;;;11.70;99.90;;;;;;5063285;28;20187;-66
2023/11/07 04:57:00;;;;;;;2.67;1.87;;;11.70;99.90;;;;;;5063603;28;20186;-66
2023/11/07 04:59:26;;;;;;;4.07;1.60;;;11.60;99.90;;;;;;5064898;28;20425;-67
2023/11/07 05:01:56;;;;;;;3.40;1.50;;;11.70;99.90;;;;;;5061316;28;20187;-66
2023/11/07 05:04:21;;;;;;;2.87;1.40;;;11.70;99.90;;;;;;5062640;28;20503;-67
2023/11/07 05:06:47;;;;;;;2.87;1.80;;;11.80;99.90;;;;;;5056108;28;20909;-67
2023/11/07 05:09:13;;;;;;;2.70;1.53;;;11.80;99.90;;;;;;5063123;28;20179;-66
2023/11/07 05:11:40;;;;;;;5.00;1.80;;;11.80;99.90;;;;;;5057966;28;20175;-67
2023/11/07 05:14:09;;;;;;;2.37;1.67;;;11.80;99.90;;;;;;5058618;28;20469;-67
2023/11/07 05:16:39;;;;;;;2.40;1.50;;;11.90;99.90;;;;;;5061611;28;20483;-67
2023/11/07 05:19:07;;;;;;;3.17;1.80;;;11.90;99.90;;;;;;5056978;28;20417;-67
2023/11/07 05:21:33;;;;;;;2.47;1.47;;;11.80;99.90;;;;;;5056322;28;20444;-68
2023/11/07 05:23:59;;;;;;;6.33;1.60;;;11.80;99.90;;;;;;5063255;28;20457;-67
2023/11/07 05:26:25;;;;;;;2.60;1.40;;;11.80;99.90;;;;;;5067846;28;20186;-67
2023/11/07 05:28:50;;;;;;;3.83;1.60;;;11.80;99.90;;;;;;5063237;28;20233;-67
2023/11/07 05:31:16;;;;;;;2.87;1.67;;;11.80;99.90;;;;;;5057229;28;20641;-67
2023/11/07 05:33:45;;;;;;;3.50;2.17;;;11.80;99.90;;;;;;5059896;28;20214;-68
2023/11/07 05:36:11;;;;;;;2.77;1.50;;;11.80;99.90;;;;;;5062694;28;20664;-67
2023/11/07 05:38:37;;;;;;;2.50;1.60;;;11.80;99.90;;;;;;5057275;28;20437;-67
2023/11/07 05:41:04;;;;;;;5.93;1.80;;;11.80;99.90;;;;;;5061726;28;20429;-67
2023/11/07 05:43:30;;;;;;;5.83;1.80;;;11.70;99.90;;;;;;5064083;28;20202;-67
2023/11/07 05:45:56;;;;;;;3.23;1.50;;;11.70;99.90;;;;;;5063793;28;20514;-67
2023/11/07 05:48:24;;;;;;;3.07;1.60;;;11.70;99.90;;;;;;5064077;28;20187;-68
2023/11/07 05:50:50;;;;;;;2.90;1.50;;;11.80;99.90;;;;;;5062111;28;20433;-68
2023/11/07 05:53:17;;;;;;;2.77;2.00;;;11.80;99.90;;;;;;5064051;28;20457;-68
2023/11/07 05:55:43;;;;;;;5.63;1.77;;;11.70;99.90;;;;;;5061517;28;20483;-68
2023/11/07 05:58:09;;;;;;;2.70;1.50;;;11.60;99.90;;;;;;5062718;28;20782;-68
2023/11/07 06:00:34;;;;;;;2.80;1.70;;;11.60;99.90;;;;;;5065493;28;20171;-68
2023/11/07 06:03:00;;;;;;;3.90;1.70;;;11.60;99.90;;;;;;5061972;28;20218;-67
2023/11/07 06:05:26;;;;;;;3.37;1.80;;;11.60;99.90;;;;;;5063694;28;20218;-67
2023/11/07 06:07:55;;;;;;;4.70;2.20;;;11.60;99.90;;;;;;5066419;28;20429;-68
2023/11/07 06:10:21;;;;;;;3.37;2.13;;;11.70;99.90;;;;;;5062660;28;20266;-67
2023/11/07 06:12:48;;;;;;;3.70;1.73;;;11.70;99.90;;;;;;5058721;28;20469;-67
2023/11/07 06:15:14;;;;;;;3.10;1.80;;;11.70;99.90;;;;;;5064333;28;20417;-67
2023/11/07 06:17:39;;;;;;;3.57;1.80;;;11.60;99.90;;;;;;5061833;28;20419;-67
2023/11/07 06:20:06;;;;;;;3.00;1.80;;;11.60;99.90;;;;;;5064260;28;20500;-67
2023/11/07 06:22:32;;;;;;;2.63;1.73;;;11.60;99.90;;;;;;5061103;28;20203;-67
2023/11/07 06:24:57;;;;;;;3.80;1.87;;;11.60;99.90;;;;;;5061027;28;20468;-67
2023/11/07 06:27:23;;;;;;;3.70;1.90;;;11.70;99.90;;;;;;5052665;28;20194;-67
2023/11/07 06:29:48;;;;;;;3.20;1.90;;;11.70;99.90;;;;;;5058906;28;20195;-66
2023/11/07 06:32:14;;;;;;;2.87;1.60;;;11.70;99.90;;;;;;5061894;28;20216;-67
2023/11/07 06:34:40;;;;;;;2.50;1.50;;;11.70;99.90;;;;;;5061697;28;20175;-67
2023/11/07 06:37:07;;;;;;;3.30;1.83;;;11.60;99.90;;;;;;5063516;28;20656;-67
2023/11/07 06:39:33;;;;;;;3.93;1.40;;;11.60;99.90;;;;;;5069986;28;21168;-67
2023/11/07 06:41:59;;;;;;;2.33;1.50;;;11.60;99.90;;;;;;5064267;28;20421;-67
2023/11/07 06:44:25;;;;;;;3.70;2.17;;;11.60;99.90;;;;;;5062721;28;20897;-67
2023/11/07 06:46:51;;;;;;;2.33;1.57;;;11.60;99.90;;;;;;5061732;28;20429;-67
2023/11/07 06:49:18;;;;;;;4.10;1.70;;;11.50;99.90;;;;;;5059717;28;20730;-67
2023/11/07 06:51:44;;;;;;;2.20;1.60;;;11.40;99.90;;;;;;5062142;28;20463;-67
2023/11/07 06:54:09;;;;;;;2.57;1.60;;;11.40;99.90;;;;;;5059773;28;20894;-67
2023/11/07 06:56:35;;;;;;;2.50;1.60;;;11.40;99.90;;;;;;5059931;28;20195;-68
2023/11/07 06:59:01;;;;;;;4.43;1.80;;;11.50;99.90;;;;;;5060839;28;20187;-67
2023/11/07 07:01:28;;;;;;;3.60;2.00;;;11.40;99.90;;;;;;5062292;28;20248;-67
2023/11/07 07:03:54;;;;;;;4.90;2.10;;;11.40;99.90;;;;;;5064594;28;20215;-67
2023/11/07 07:06:21;;;;;;;4.03;2.33;;;11.50;99.90;;;;;;5062625;28;20482;-67
2023/11/07 07:08:47;;;;;;;5.40;2.33;;;11.50;99.90;;;;;;5058815;28;20428;-67
2023/11/07 07:11:12;;;;;;;2.50;1.70;;;11.50;99.90;;;;;;5063409;28;20417;-67
2023/11/07 07:13:38;;;;;;;3.50;1.80;;;11.50;99.90;;;;;;5063093;28;20298;-67
2023/11/07 07:16:05;;;;;;;3.50;1.50;;;11.60;99.90;;;;;;5063842;28;20206;-67
2023/11/07 07:18:31;;;;;;;8.20;1.90;;;11.70;99.90;;;;;;5060000;28;20178;-67
2023/11/07 07:20:57;;;;;;;3.20;1.93;;;11.70;99.90;;;;;;5062436;28;20418;-67
2023/11/07 07:23:29;;;;;;;3.60;1.83;;;11.70;99.90;;;;;;5060937;28;20617;-67
2023/11/07 07:25:55;;;;;;;2.90;1.80;;;11.70;99.90;;;;;;5062527;28;20945;-68
2023/11/07 07:28:21;;;;;;;5.07;1.70;;;11.70;99.90;;;;;;5058174;28;20928;-68
2023/11/07 07:30:50;;;;;;;2.40;1.40;;;11.70;99.90;;;;;;5057014;28;20440;-68
2023/11/07 07:33:18;;;;;;;3.30;1.60;;;11.80;99.90;;;;;;5062634;28;20207;-68
2023/11/07 07:35:47;;;;;;;5.50;2.13;;;11.80;99.90;;;;;;5049347;28;20417;-67
2023/11/07 07:38:13;;;;;;;3.57;2.10;;;11.70;99.90;;;;;;5059883;28;20456;-66
2023/11/07 07:40:39;;;;;;;2.10;1.70;;;11.70;99.90;;;;;;5060618;28;20429;-67
2023/11/07 07:43:08;;;;;;;6.70;1.80;;;11.70;99.90;;;;;;5075097;28;20261;-66
2023/11/07 07:45:35;;;;;;;2.63;1.70;;;11.80;99.90;;;;;;5068628;28;20183;-67
2023/11/07 07:48:03;;;;;;;3.33;1.60;;;11.80;99.90;;;;;;5062849;28;20429;-67
2023/11/07 07:50:30;;;;;;;6.53;1.77;;;11.70;99.90;;;;;;5055774;28;20521;-67
2023/11/07 07:52:58;;;;;;;2.27;1.60;;;11.80;99.90;;;;;;5061412;28;20467;-68
2023/11/07 07:55:27;;;;;;;3.30;1.77;;;11.90;99.90;;;;;;5058048;28;20981;-68
2023/11/07 07:57:53;;;;;;;3.30;1.77;;;11.90;99.90;;;;;;5062480;28;20429;-68
2023/11/07 08:00:24;;;;;;;4.53;1.70;;;11.90;99.90;;;;;;5061069;28;20495;-68
2023/11/07 08:02:53;;;;;;;3.30;1.80;;;11.90;99.90;;;;;;5060008;28;20550;-68
2023/11/07 08:05:19;;;;;;;3.73;1.50;;;11.80;99.90;;;;;;5066078;28;20458;-66
2023/11/07 08:07:45;;;;;;;4.10;2.10;;;11.80;99.90;;;;;;5066384;28;20442;-68
2023/11/07 08:10:16;;;;;;;2.40;1.70;;;11.80;99.90;;;;;;5066327;28;20437;-68
2023/11/07 08:12:45;;;;;;;3.33;1.93;;;11.90;99.90;;;;;;5053683;28;20522;-69
2023/11/07 08:15:11;;;;;;;3.83;1.60;;;11.90;99.90;;;;;;5056635;28;20479;-69
2023/11/07 08:17:37;;;;;;;4.10;1.90;;;11.90;99.90;;;;;;5061046;28;20430;-69
2023/11/07 08:20:19;;;;;;;2.90;1.50;;;11.90;99.90;;;;;;5065744;28;20687;-69
2023/11/07 08:22:48;;;;;;;2.47;1.40;;;12.10;99.90;;;;;;5063032;28;20809;-68
2023/11/07 08:25:18;;;;;;;3.53;2.20;;;12.10;99.90;;;;;;5053254;28;20434;-69
2023/11/07 08:27:44;;;;;;;3.40;1.73;;;12.10;99.90;;;;;;5063098;28;20474;-69
2023/11/07 08:30:15;;;;;;;4.67;1.70;;;12.00;99.90;;;;;;5063927;28;21005;-70
2023/11/07 08:32:43;;;;;;;3.07;1.50;;;12.00;99.90;;;;;;5063500;28;20480;-68
2023/11/07 08:35:15;;;;;;;2.53;1.60;;;12.00;99.90;;;;;;5063409;28;20413;-67
2023/11/07 08:37:41;;;;;;;2.73;1.77;;;12.00;99.90;;;;;;5065306;28;20475;-67
2023/11/07 08:40:08;;;;;;;4.20;1.60;;;12.00;99.90;;;;;;5065043;28;20513;-68
2023/11/07 08:42:43;;;;;;;2.17;1.50;;;12.00;99.90;;;;;;5061456;28;22802;-68
2023/11/07 08:45:15;;;;;;;2.60;1.63;;;12.10;99.90;;;;;;5064967;28;20432;-68
2023/11/07 08:47:44;;;;;;;3.23;1.60;;;12.10;99.90;;;;;;5066574;28;20508;-69
2023/11/07 08:50:11;;;;;;;2.57;1.70;;;12.00;99.90;;;;;;5061769;28;20769;-69
2023/11/07 08:52:37;;;;;;;2.57;1.57;;;12.10;99.90;;;;;;5063409;28;21045;-69
2023/11/07 08:55:05;;;;;;;3.63;1.80;;;12.10;99.90;;;;;;5065689;28;20428;-69
2023/11/07 08:57:31;;;;;;;2.97;1.43;;;12.10;99.90;;;;;;5068674;28;20429;-68
2023/11/07 08:59:57;;;;;;;2.43;1.47;;;12.10;99.90;;;;;;5071660;28;20458;-68
2023/11/07 09:02:23;;;;;;;3.30;1.67;;;11.90;99.90;;;;;;5075272;28;20437;-69
2023/11/07 09:04:49;;;;;;;3.20;1.80;;;12.00;99.90;;;;;;5076682;28;20220;-68
2023/11/07 09:07:16;;;;;;;3.23;1.50;;;12.00;99.90;;;;;;5069833;28;20641;-69
2023/11/07 09:09:42;;;;;;;3.20;1.70;;;12.00;99.90;;;;;;5070981;28;20183;-68
2023/11/07 09:12:10;;;;;;;3.10;1.50;;;12.10;99.90;;;;;;5072299;28;20413;-69
2023/11/07 09:14:36;;;;;;;4.00;1.70;;;12.10;99.90;;;;;;5070589;28;20425;-68
2023/11/07 09:17:01;;;;;;;4.73;1.50;;;12.10;99.90;;;;;;5067041;28;21151;-68
2023/11/07 09:19:27;;;;;;;2.80;1.90;;;12.10;99.90;;;;;;5063448;28;20209;-69
2023/11/07 09:21:53;;;;;;;2.67;1.80;;;12.10;99.90;;;;;;5060734;28;20436;-69
2023/11/07 09:24:18;;;;;;;3.40;2.03;;;12.00;99.90;;;;;;5054361;28;20260;-68
2023/11/07 09:26:45;;;;;;;2.60;1.57;;;12.00;99.90;;;;;;5054776;28;20195;-68
2023/11/07 09:29:10;;;;;;;3.00;1.57;;;12.10;99.90;;;;;;5061336;28;20183;-69
2023/11/07 09:31:36;;;;;;;5.30;1.90;;;12.10;99.90;;;;;;5060433;28;20476;-70
2023/11/07 09:34:02;;;;;;;3.47;1.80;;;12.20;99.90;;;;;;5057337;28;20211;-69
2023/11/07 09:36:27;;;;;;;2.67;1.40;;;12.20;99.90;;;;;;5057934;28;20252;-68
2023/11/07 09:38:54;;;;;;;3.07;1.53;;;12.10;99.90;;;;;;5060740;28;20646;-69
2023/11/07 09:41:20;;;;;;;3.30;1.80;;;12.10;99.90;;;;;;5059400;28;20190;-69
2023/11/07 09:43:46;;;;;;;2.50;1.50;;;12.10;99.90;;;;;;5057319;28;20449;-69
2023/11/07 09:46:13;;;;;;;2.77;1.57;;;12.10;99.90;;;;;;5058214;28;20260;-69
2023/11/07 09:48:39;;;;;;;4.50;1.67;;;12.10;99.90;;;;;;5061800;28;21101;-69
2023/11/07 09:51:08;;;;;;;3.53;1.63;;;12.10;99.90;;;;;;5059245;28;20537;-69
2023/11/07 09:53:35;;;;;;;4.07;1.77;;;12.10;99.90;;;;;;5059410;28;20211;-68
2023/11/07 09:56:03;;;;;;;2.90;1.50;;;12.00;99.90;;;;;;5058406;28;20741;-68
2023/11/07 09:58:29;;;;;;;2.17;1.70;;;12.20;99.90;;;;;;5063107;28;20513;-68
2023/11/07 10:00:59;;;;;;;2.80;1.63;;;12.00;99.90;;;;;;5058007;28;20939;-69
2023/11/07 10:03:25;;;;;;;4.40;1.90;;;12.10;99.90;;;;;;5062204;28;20471;-68
2023/11/07 10:05:51;;;;;;;2.20;1.33;;;12.00;99.90;;;;;;5065189;28;20837;-68
2023/11/07 10:08:22;;;;;;;2.80;1.80;;;12.00;99.90;;;;;;5060573;28;20432;-68
2023/11/07 10:11:11;;;;;;;3.73;1.90;;;12.00;99.90;;;;;;5044581;28;20427;-68
2023/11/07 10:13:36;;;;;;;6.33;1.83;;;11.90;99.90;;;;;;5061985;28;20599;-68
2023/11/07 10:16:08;;;;;;;2.40;1.67;;;11.90;99.90;;;;;;5060980;28;20539;-68
2023/11/07 10:18:47;;;;;;;2.93;1.77;;;12.00;99.90;;;;;;5059764;28;20205;-68
2023/11/07 10:21:14;;;;;;;5.30;1.50;;;11.90;99.90;;;;;;5062010;28;20528;-68
2023/11/07 10:23:41;;;;;;;2.33;1.70;;;11.90;99.90;;;;;;5061122;28;20452;-67
2023/11/07 10:26:15;;;;;;;2.53;1.57;;;11.90;99.90;;;;;;5063772;28;20520;-67
2023/11/07 10:28:41;;;;;;;2.87;1.50;;;11.80;99.90;;;;;;5061447;28;20590;-68
2023/11/07 10:31:23;;;;;;;3.03;1.60;;;11.70;99.90;;;;;;5066164;28;20413;-68
2023/11/07 10:33:49;;;;;;;2.87;1.87;;;11.80;99.90;;;;;;5060939;28;20530;-67
2023/11/07 10:36:14;;;;;;;4.53;3.47;;;11.70;99.90;;;;;;5059690;28;20453;-67
2023/11/07 10:38:40;;;;;;;4.07;2.13;;;11.80;99.90;;;;;;5064565;28;20757;-67
2023/11/07 10:41:06;;;;;;;2.93;1.53;;;11.90;99.90;;;;;;5061241;28;20175;-67
2023/11/07 10:43:38;;;;;;;2.60;1.80;;;12.00;99.90;;;;;;5059654;28;20508;-67
2023/11/07 10:46:09;;;;;;;2.83;1.60;;;12.10;99.90;;;;;;5062900;28;20613;-68
2023/11/07 10:48:41;;;;;;;2.70;1.83;;;12.10;99.90;;;;;;5058461;28;20426;-67
2023/11/07 10:51:12;;;;;;;2.20;1.40;;;12.30;99.90;;;;;;5054573;28;20446;-68
2023/11/07 10:53:41;;;;;;;2.10;1.17;;;12.30;99.90;;;;;;5061948;28;20999;-70
2023/11/07 10:56:20;;;;;;;8.50;1.60;;;12.20;99.90;;;;;;5057003;28;20937;-68
2023/11/07 10:58:58;;;;;;;1.90;1.53;;;12.20;99.90;;;;;;5063084;28;20828;-69
2023/11/07 11:01:27;;;;;;;2.70;1.47;;;12.30;99.90;;;;;;5064184;28;20429;-68
2023/11/07 11:03:54;;;;;;;4.20;1.47;;;12.30;99.90;;;;;;5060410;28;20445;-68
2023/11/07 11:06:23;;;;;;;4.57;1.40;;;12.30;99.90;;;;;;5063600;28;20445;-68
2023/11/07 11:09:01;;;;;;;2.30;1.50;;;12.40;99.90;;;;;;5072405;28;20472;-68
2023/11/07 11:11:31;;;;;;;2.87;1.47;;;12.30;99.90;;;;;;5062738;28;20405;-68
2023/11/07 11:13:58;;;;;;;3.50;1.67;;;12.30;99.90;;;;;;5056990;28;20477;-67
2023/11/07 11:16:26;;;;;;;2.97;1.60;;;12.30;99.90;;;;;;5057776;28;20453;-68
2023/11/07 11:19:14;;;;;;;2.87;1.30;;;12.30;99.90;;;;;;5060773;28;20433;-68
2023/11/07 11:22:00;;;;;;;3.60;1.40;;;12.20;99.90;;;;;;5059058;28;20448;-68
2023/11/07 11:24:48;;;;;;;2.87;1.50;;;12.30;99.90;;;;;;5055940;28;20977;-69
2023/11/07 11:27:31;;;;;;;2.30;1.63;;;12.40;99.90;;;;;;5058909;28;20420;-69
2023/11/07 11:29:57;;;;;;;2.80;1.50;;;12.30;99.90;;;;;;5060732;28;20414;-69
2023/11/07 11:32:26;;;;;;;2.00;1.20;;;12.30;99.90;;;;;;5059201;28;20487;-67
2023/11/07 11:35:10;;;;;;;5.27;1.50;;;12.30;99.90;;;;;;5055116;28;20183;-68
2023/11/07 11:40:55;;;;;;;3.30;1.73;;;12.50;99.90;;;;;;5057276;28;20414;-67
2023/11/07 11:43:29;;;;;;;2.90;1.77;;;12.60;99.90;;;;;;5060319;28;20515;-68
2023/11/07 11:46:18;;;;;;;4.20;1.80;;;12.60;99.90;;;;;;5059823;28;20438;-67
2023/11/07 11:48:49;;;;;;;;;;;;;;;;;;;;;
2023/11/07 11:51:40;;;;;;;4.67;1.60;;;12.50;99.90;;;;;;5060095;28;20425;-67
2023/11/07 11:54:35;;;;;;;2.80;1.80;;;12.50;99.90;;;;;;5058673;28;20481;-68
2023/11/07 11:57:03;;;;;;;2.77;1.50;;;12.40;99.90;;;;;;5047078;28;20994;-69
2023/11/07 11:59:55;;;;;;;3.40;1.73;;;12.50;99.90;;;;;;5058509;28;20443;-68
2023/11/07 12:02:42;;;;;;;2.27;1.47;;;12.50;99.90;;;;;;5051086;28;20540;-68
2023/11/07 12:05:16;;;;;;;5.60;2.10;;;12.70;99.90;;;;;;5053262;28;20533;-67
2023/11/07 12:07:43;;;;;;;3.73;1.70;;;13.00;99.90;;;;;;5052537;28;20427;-67
2023/11/07 12:10:09;;;;;;;2.63;1.80;;;13.20;99.90;;;;;;5058209;28;20520;-68
2023/11/07 12:12:37;;;;;;;2.03;1.50;;;13.20;99.90;;;;;;5054861;28;20472;-70
2023/11/07 12:15:03;;;;;;;2.70;1.83;;;13.20;99.90;;;;;;5057315;28;20179;-66
2023/11/07 12:17:47;;;;;;;4.43;2.30;;;13.20;99.90;;;;;;5058052;28;20418;-68
2023/11/07 12:20:16;;;;;;;2.57;1.77;;;13.00;99.90;;;;;;5055219;28;20506;-68
2023/11/07 12:22:46;;;;;;;2.10;1.50;;;13.10;99.90;;;;;;5056844;28;20449;-68
2023/11/07 12:25:19;;;;;;;2.87;1.60;;;13.20;99.90;;;;;;5056689;28;20453;-67
2023/11/07 12:28:03;;;;;;;2.57;1.57;;;13.10;99.90;;;;;;5056158;28;20428;-67
2023/11/07 12:30:31;;;;;;;3.10;1.70;;;13.00;99.90;;;;;;5057446;28;20456;-67
2023/11/07 12:33:01;;;;;;;6.67;1.90;;;13.20;99.90;;;;;;5057077;28;20505;-68
2023/11/07 12:35:29;;;;;;;3.50;2.10;;;13.20;99.90;;;;;;5060475;28;20437;-67
2023/11/07 12:37:56;;;;;;;2.03;1.47;;;13.40;99.90;;;;;;5055245;28;20480;-67
2023/11/07 12:40:23;;;;;;;3.37;1.50;;;13.30;99.90;;;;;;5060431;28;20453;-67
2023/11/07 12:42:56;;;;;;;3.17;1.60;;;13.40;99.90;;;;;;5056267;28;20449;-67
2023/11/07 12:45:29;;;;;;;3.03;1.97;;;13.40;99.90;;;;;;5059587;28;20526;-68
2023/11/07 12:47:56;;;;;;;4.93;2.27;;;13.60;99.90;;;;;;5058097;28;20425;-68
2023/11/07 12:50:22;;;;;;;3.03;1.70;;;13.50;99.90;;;;;;5059924;28;20435;-67
2023/11/07 12:52:55;;;;;;;3.80;1.80;;;13.60;99.90;;;;;;5056627;28;20473;-67
2023/11/07 12:55:26;;;;;;;2.87;1.70;;;13.80;99.90;;;;;;5062412;28;20190;-68